Item Display Status Humidity-temperature Sensor

Elevation Above Sea Level: 3 m

 

Deployed Sensor

  • Serial Number: 61378499
  • NDBC Property Number: 39625
  • Start Date: 11/20/2016 (17:43:48 Z)
  • End Date: Currently Active
Relative Humidity [%]     6 entries per hour
Showing data from 9/25/2018 (11:00:00 Z) to 9/24/2018 (00:00:01 Z)
Previous Next [ Day | 3-Days | 7-Days ]
First Last
Prev [ Day | 3-Days | 7-Days ] Next
First Last

Start Time:     :
End Time:     :     
Time (in GMT) :00 :50 :40 :30 :20 :10
Previous Next [ Day | 3-Days | 7-Days ]
First Last
Prev [ Day | 3-Days | 7-Days ] Next
First Last


123 => good data
MM => data is determined as missing
-- => data not received/configured
Back to Top Back to Top
9/25/2018 11:00 to 10:10 85.77 85.30 85.06 85.63 85.83 86.26
9/25/2018 10:00 to 9:10 86.42 86.74 86.64 86.82 86.58 86.60
9/25/2018 09:00 to 8:10 86.66 87.07 87.31 87.76 88.18 88.87
9/25/2018 08:00 to 7:10 89.14 88.91 86.78 82.70 81.93 80.80
9/25/2018 07:00 to 6:10 81.32 81.87 81.99 82.28 82.50 82.72
9/25/2018 06:00 to 5:10 82.78 83.41 84.14 84.55 84.87 85.14
9/25/2018 05:00 to 4:10 85.46 85.48 85.71 85.87 85.95 86.23
9/25/2018 04:00 to 3:10 86.28 86.34 86.36 86.19 86.05 85.97
9/25/2018 03:00 to 2:10 86.17 86.17 86.11 85.52 85.57 85.22
9/25/2018 02:00 to 1:10 85.44 85.73 85.46 85.81 85.77 85.36
9/25/2018 01:00 to 0:10 85.00 85.14 85.42 85.24 84.92 84.45
9/25/2018 00:00 to 23:10 84.06 83.82 84.00 85.20 86.76 88.20
9/24/2018 23:00 to 22:10 89.32 90.17 90.70 91.37 92.00 91.65
9/24/2018 22:00 to 21:10 92.34 92.85 92.20 91.21 89.08 84.61
9/24/2018 21:00 to 20:10 81.40 79.41 78.66 78.50 80.65 82.87
9/24/2018 20:00 to 19:10 83.17 83.58 84.12 84.59 85.38 86.15
9/24/2018 19:00 to 18:10 87.33 88.10 88.49 88.29 88.47 89.18
9/24/2018 18:00 to 17:10 89.60 89.28 89.48 88.98 89.00 89.06
9/24/2018 17:00 to 16:10 90.05 92.47 91.98 91.78 91.57 91.15
9/24/2018 16:00 to 15:10 91.25 89.00 87.70 88.33 88.26 87.13
9/24/2018 15:00 to 14:10 85.24 80.90 80.80 80.25 81.44 81.12
9/24/2018 14:00 to 13:10 81.99 85.12 85.50 82.48 77.77 78.34
9/24/2018 13:00 to 12:10 79.23 80.51 80.39 81.20 80.59 82.36
9/24/2018 12:00 to 11:10 81.51 81.81 82.38 81.67 82.13 82.64
9/24/2018 11:00 to 10:10 81.26 83.01 84.79 86.50 87.39 88.33
9/24/2018 10:00 to 9:10 87.37 89.48 85.65 84.71 85.22 83.86
9/24/2018 09:00 to 8:10 86.99 85.95 84.87 83.11 81.89 81.20
9/24/2018 08:00 to 7:10 80.77 79.66 79.74 79.62 79.35 78.79
9/24/2018 07:00 to 6:10 78.87 78.87 78.46 79.94 80.13 79.78
9/24/2018 06:00 to 5:10 78.60 77.02 77.67 77.28 78.34 78.08
9/24/2018 05:00 to 4:10 77.30 77.45 77.36 77.47 77.89 77.89
9/24/2018 04:00 to 3:10 79.37 79.09 79.66 79.52 78.81 78.99
9/24/2018 03:00 to 2:10 78.95 82.32 82.74 83.43 82.40 83.86
9/24/2018 02:00 to 1:10 83.78 84.41 84.61 84.92 85.59 85.44
9/24/2018 01:00 to 0:10 85.89 85.34 84.98 84.92 85.48 85.38

 

 

 

Air Temperature [°C]     6 entries per hour
Showing data from 9/25/2018 (11:00:00 Z) to 9/24/2018 (00:00:01 Z)
Previous Next [ Day | 3-Days | 7-Days ]
First Last
Prev [ Day | 3-Days | 7-Days ] Next
First Last

Start Time:     :
End Time:     :     
Time (in GMT) :00 :50 :40 :30 :20 :10
Previous Next [ Day | 3-Days | 7-Days ]
First Last
Prev [ Day | 3-Days | 7-Days ] Next
First Last


123 => good data
MM => data is determined as missing
-- => data not received/configured
Back to Top Back to Top
9/25/2018 11:00 to 10:10 26.13 26.18 26.01 26.01 26.08 25.99
9/25/2018 10:00 to 9:10 25.87 26.09 26.03 26.02 26.06 26.12
9/25/2018 09:00 to 8:10 26.22 26.26 26.01 26.18 26.04 26.05
9/25/2018 08:00 to 7:10 26.01 25.90 26.18 26.42 26.41 26.51
9/25/2018 07:00 to 6:10 26.25 26.28 26.25 26.11 26.07 26.05
9/25/2018 06:00 to 5:10 25.91 25.90 25.94 25.89 25.75 25.75
9/25/2018 05:00 to 4:10 25.72 25.59 25.72 25.59 25.48 25.58
9/25/2018 04:00 to 3:10 25.47 25.52 25.52 25.52 25.39 25.39
9/25/2018 03:00 to 2:10 25.40 25.39 25.37 25.24 25.16 25.20
9/25/2018 02:00 to 1:10 25.30 25.17 25.16 25.07 24.99 24.92
9/25/2018 01:00 to 0:10 25.07 24.66 24.64 24.61 24.43 24.27
9/25/2018 00:00 to 23:10 24.29 24.19 23.95 24.31 24.15 24.01
9/24/2018 23:00 to 22:10 23.98 23.83 23.76 23.79 23.79 23.90
9/24/2018 22:00 to 21:10 24.95 25.43 25.28 25.35 25.95 26.35
9/24/2018 21:00 to 20:10 27.11 27.84 27.75 27.81 27.61 27.33
9/24/2018 20:00 to 19:10 27.23 27.08 26.92 26.79 26.61 26.41
9/24/2018 19:00 to 18:10 26.27 26.05 25.67 25.69 25.67 25.29
9/24/2018 18:00 to 17:10 25.18 25.16 25.29 25.36 24.95 24.92
9/24/2018 17:00 to 16:10 23.95 23.55 23.80 23.84 24.36 25.63
9/24/2018 16:00 to 15:10 25.65 26.15 26.34 26.34 26.38 26.42
9/24/2018 15:00 to 14:10 26.94 27.13 26.91 26.79 26.64 26.64
9/24/2018 14:00 to 13:10 26.75 26.56 26.82 26.88 27.22 27.13
9/24/2018 13:00 to 12:10 27.26 27.29 26.95 27.10 26.85 27.18
9/24/2018 12:00 to 11:10 27.23 27.15 27.29 27.22 27.23 27.30
9/24/2018 11:00 to 10:10 27.19 27.10 27.09 26.97 26.79 26.79
9/24/2018 10:00 to 9:10 26.31 25.96 26.28 26.33 26.33 26.16
9/24/2018 09:00 to 8:10 26.11 26.74 26.43 27.22 27.34 27.32
9/24/2018 08:00 to 7:10 27.43 27.29 27.20 27.26 27.18 27.22
9/24/2018 07:00 to 6:10 27.28 27.32 27.20 27.28 27.00 27.03
9/24/2018 06:00 to 5:10 26.96 27.12 27.13 27.15 27.08 27.05
9/24/2018 05:00 to 4:10 26.97 27.09 27.07 27.18 26.87 26.91
9/24/2018 04:00 to 3:10 26.88 26.84 26.81 26.91 26.85 26.85
9/24/2018 03:00 to 2:10 26.68 26.70 26.62 26.68 26.65 26.64
9/24/2018 02:00 to 1:10 26.61 26.60 26.55 26.56 26.47 26.48
9/24/2018 01:00 to 0:10 26.43 26.28 26.51 26.47 26.43 26.06